Time;durP1;ratioP1;P1;durP2;ratioP2;P2;SDS_P1;SDS_P2;PMS_P1;PMS_P2;Temp;Humidity;BMP_temperature;BMP_pressure;BME280_temperature;BME280_humidity;BME280_pressure;Samples;Min_cycle;Max_cycle;Signal;HPM_P1;HPM_P2
2021/12/02 00:01:23;;;;;;;6.37;2.10;;;;;;;;;;5061981;28;20024;-89
2021/12/02 00:03:49;;;;;;;5.53;1.60;;;;;;;;;;5074817;28;20157;-88
2021/12/02 00:06:15;;;;;;;8.37;1.63;;;;;;;;;;5061190;28;20057;-89
2021/12/02 00:08:41;;;;;;;9.83;2.27;;;;;;;;;;5075034;28;20036;-89
2021/12/02 00:11:06;;;;;;;6.87;1.67;;;;;;;;;;5074141;28;20627;-89
2021/12/02 00:13:42;;;;;;;4.60;1.20;;;;;;;;;;5074979;28;20028;-89
2021/12/02 00:16:32;;;;;;;4.23;1.20;;;;;;;;;;5076797;28;20024;-89
2021/12/02 00:21:46;;;;;;;3.87;1.10;;;;;;;;;;5091276;28;20107;-89
2021/12/02 00:24:14;;;;;;;3.87;1.33;;;;;;;;;;5058705;28;20020;-89
2021/12/02 00:26:39;;;;;;;4.63;1.47;;;;;;;;;;5059723;28;20020;-89
2021/12/02 00:29:08;;;;;;;3.50;1.27;;;;;;;;;;5076121;28;20022;-89
2021/12/02 00:31:35;;;;;;;4.70;1.27;;;;;;;;;;5058614;28;20025;-90
2021/12/02 00:34:03;;;;;;;6.60;1.30;;;;;;;;;;5078031;28;20053;-89
2021/12/02 00:36:30;;;;;;;6.60;1.50;;;;;;;;;;5067098;28;20537;-89
2021/12/02 00:38:56;;;;;;;1.83;1.00;;;;;;;;;;5062633;28;20652;-90
2021/12/02 00:41:23;;;;;;;4.57;1.43;;;;;;;;;;5068798;28;20028;-90
2021/12/02 00:43:49;;;;;;;2.97;1.30;;;;;;;;;;5073867;28;20129;-90
2021/12/02 00:46:16;;;;;;;5.83;1.00;;;;;;;;;;5070214;28;20024;-90
2021/12/02 00:48:42;;;;;;;5.63;1.00;;;;;;;;;;5072709;28;20024;-90
2021/12/02 00:51:08;;;;;;;3.20;0.80;;;;;;;;;;5078500;28;20048;-90
2021/12/02 00:53:34;;;;;;;2.43;1.00;;;;;;;;;;5096804;28;20085;-89
2021/12/02 00:56:03;;;;;;;2.70;0.60;;;;;;;;;;5078463;28;20073;-89
2021/12/02 00:58:30;;;;;;;4.23;0.70;;;;;;;;;;5096283;28;20024;-89
2021/12/02 01:00:56;;;;;;;2.87;0.50;;;;;;;;;;5093678;28;20024;-89
2021/12/02 01:03:21;;;;;;;1.60;0.53;;;;;;;;;;5078105;28;20110;-89
2021/12/02 01:05:47;;;;;;;5.17;0.70;;;;;;;;;;5078009;28;20078;-89
2021/12/02 01:08:12;;;;;;;3.17;0.47;;;;;;;;;;5077883;28;20039;-89
2021/12/02 01:10:39;;;;;;;2.53;0.60;;;;;;;;;;5077972;28;20081;-89
2021/12/02 01:13:04;;;;;;;1.90;0.60;;;;;;;;;;5077924;28;20103;-89
2021/12/02 01:15:30;;;;;;;3.07;0.67;;;;;;;;;;5078032;28;20075;-89
2021/12/02 01:17:55;;;;;;;7.23;0.70;;;;;;;;;;5064836;28;20024;-89
2021/12/02 01:20:20;;;;;;;1.13;0.30;;;;;;;;;;5061710;28;20020;-90
2021/12/02 01:22:47;;;;;;;0.83;0.50;;;;;;;;;;5078059;28;20020;-90
2021/12/02 01:25:12;;;;;;;2.90;0.50;;;;;;;;;;5077932;28;20456;-89
2021/12/02 01:27:39;;;;;;;4.53;0.70;;;;;;;;;;5094954;28;20153;-89
2021/12/02 01:30:05;;;;;;;3.30;0.83;;;;;;;;;;5077861;28;20058;-89
2021/12/02 01:32:34;;;;;;;1.93;0.50;;;;;;;;;;5077801;28;20020;-90
2021/12/02 01:35:01;;;;;;;2.50;0.80;;;;;;;;;;5074720;28;20162;-89
2021/12/02 01:37:27;;;;;;;2.53;0.77;;;;;;;;;;5057822;28;20028;-89
2021/12/02 01:39:52;;;;;;;5.03;1.00;;;;;;;;;;5057716;28;20353;-89
2021/12/02 01:42:26;;;;;;;3.03;1.03;;;;;;;;;;5057725;28;20430;-90
2021/12/02 01:44:52;;;;;;;4.23;0.90;;;;;;;;;;5057710;28;20028;-90
2021/12/02 01:47:20;;;;;;;3.40;1.03;;;;;;;;;;5058014;28;20181;-89
2021/12/02 01:49:50;;;;;;;4.27;1.33;;;;;;;;;;5057672;28;20056;-89
2021/12/02 01:52:19;;;;;;;7.50;1.47;;;;;;;;;;5057356;28;20032;-90
2021/12/02 01:54:45;;;;;;;6.37;1.20;;;;;;;;;;5057286;28;20361;-89
2021/12/02 01:57:16;;;;;;;3.07;1.10;;;;;;;;;;5057403;28;20025;-90
2021/12/02 01:59:43;;;;;;;8.10;1.30;;;;;;;;;;5057471;28;20039;-90
2021/12/02 02:02:10;;;;;;;2.50;1.00;;;;;;;;;;5091054;28;20029;-89
2021/12/02 02:04:35;;;;;;;4.67;1.00;;;;;;;;;;5057293;28;20400;-90
2021/12/02 02:07:05;;;;;;;3.93;1.13;;;;;;;;;;5057261;28;20024;-90
2021/12/02 02:09:32;;;;;;;4.80;1.10;;;;;;;;;;5074871;28;20468;-89
2021/12/02 02:11:58;;;;;;;1.80;0.90;;;;;;;;;;5056941;28;20117;-90
2021/12/02 02:14:24;;;;;;;6.13;1.30;;;;;;;;;;5071171;28;20490;-90
2021/12/02 02:16:50;;;;;;;10.10;1.80;;;;;;;;;;5076960;28;20020;-90
2021/12/02 02:19:16;;;;;;;6.10;1.53;;;;;;;;;;5075119;28;20028;-90
2021/12/02 02:21:42;;;;;;;4.33;1.60;;;;;;;;;;5076719;28;20039;-90
2021/12/02 02:24:12;;;;;;;4.20;1.60;;;;;;;;;;5076724;28;20464;-89
2021/12/02 02:26:37;;;;;;;9.40;2.40;;;;;;;;;;5076664;28;20494;-90
2021/12/02 02:29:04;;;;;;;4.67;1.33;;;;;;;;;;5076867;28;20020;-90
2021/12/02 02:31:30;;;;;;;2.83;1.53;;;;;;;;;;5076639;28;20036;-90
2021/12/02 02:33:56;;;;;;;3.37;1.30;;;;;;;;;;5064583;28;20077;-90
2021/12/02 02:36:22;;;;;;;4.37;1.30;;;;;;;;;;5056569;28;20032;-88
2021/12/02 02:38:55;;;;;;;5.43;1.00;;;;;;;;;;5056088;28;20472;-90
2021/12/02 02:41:26;;;;;;;8.97;1.43;;;;;;;;;;5056538;28;20035;-89
2021/12/02 02:43:55;;;;;;;2.53;0.90;;;;;;;;;;5056531;28;20024;-90
2021/12/02 02:46:21;;;;;;;8.10;1.13;;;;;;;;;;5056391;28;20043;-90
2021/12/02 02:48:46;;;;;;;2.93;0.73;;;;;;;;;;5074295;28;20069;-90
2021/12/02 02:51:11;;;;;;;6.43;1.10;;;;;;;;;;5056217;28;20476;-90
2021/12/02 02:53:37;;;;;;;1.80;0.70;;;;;;;;;;5056427;28;20016;-89
2021/12/02 02:56:15;;;;;;;10.27;0.93;;;;;;;;;;5056334;28;20119;-90
2021/12/02 03:04:24;;;;;;;2.37;0.70;;;;;;;;;;5094473;28;20028;-89
2021/12/02 03:07:12;;;;;;;5.60;0.70;;;;;;;;;;5076177;28;20020;-90
2021/12/02 03:09:49;;;;;;;0.97;0.57;;;;;;;;;;5093501;28;20044;-90
2021/12/02 03:12:21;;;;;;;3.90;0.80;;;;;;;;;;5076148;28;20111;-90
2021/12/02 03:14:54;;;;;;;3.13;0.90;;;;;;;;;;5075967;28;20020;-90
2021/12/02 03:17:20;;;;;;;3.33;0.70;;;;;;;;;;5075340;28;20024;-90
2021/12/02 03:19:46;;;;;;;6.60;1.20;;;;;;;;;;5094032;28;20074;-90
2021/12/02 03:22:12;;;;;;;6.83;0.90;;;;;;;;;;5094182;28;20439;-90
2021/12/02 03:24:37;;;;;;;5.93;0.70;;;;;;;;;;5094004;28;20471;-90
2021/12/02 03:27:03;;;;;;;4.53;0.63;;;;;;;;;;5075886;28;20032;-90
2021/12/02 03:29:28;;;;;;;1.20;0.40;;;;;;;;;;5075730;28;20023;-90
2021/12/02 03:31:54;;;;;;;3.37;0.40;;;;;;;;;;5070049;28;20028;-90
2021/12/02 03:34:19;;;;;;;2.40;0.60;;;;;;;;;;5074224;28;20020;-90
2021/12/02 03:36:51;;;;;;;2.37;0.57;;;;;;;;;;5055681;28;20487;-90
2021/12/02 03:39:16;;;;;;;1.17;0.43;;;;;;;;;;5055380;28;20376;-89
2021/12/02 03:41:41;;;;;;;6.33;0.70;;;;;;;;;;5073581;28;20021;-90
2021/12/02 03:44:07;;;;;;;2.43;0.60;;;;;;;;;;5055473;28;20025;-90
2021/12/02 03:46:32;;;;;;;5.17;0.60;;;;;;;;;;5055437;28;20027;-90
2021/12/02 03:48:59;;;;;;;3.13;0.60;;;;;;;;;;5055427;28;20365;-90
2021/12/02 03:51:24;;;;;;;2.73;0.67;;;;;;;;;;5058103;28;20031;-89
2021/12/02 03:53:49;;;;;;;3.50;1.00;;;;;;;;;;5059800;28;20443;-90
2021/12/02 03:56:15;;;;;;;6.90;1.10;;;;;;;;;;5059892;28;20025;-90
2021/12/02 03:58:41;;;;;;;11.27;1.30;;;;;;;;;;5059417;28;20016;-90
2021/12/02 04:01:07;;;;;;;8.57;1.43;;;;;;;;;;5077164;28;20086;-90
2021/12/02 04:03:33;;;;;;;3.73;1.20;;;;;;;;;;5059560;28;20102;-90
2021/12/02 04:05:58;;;;;;;4.90;1.00;;;;;;;;;;5059656;28;20488;-90
2021/12/02 04:08:30;;;;;;;6.00;1.00;;;;;;;;;;5059260;28;20112;-90
2021/12/02 04:11:11;;;;;;;6.00;0.95;;;;;;;;;;5059239;28;20443;-90
2021/12/02 04:13:40;;;;;;;7.23;1.10;;;;;;;;;;5059438;28;20178;-90
2021/12/02 04:16:14;;;;;;;8.30;1.00;;;;;;;;;;5059121;28;20031;-90
2021/12/02 04:18:39;;;;;;;3.30;0.63;;;;;;;;;;5059501;28;20586;-90
2021/12/02 04:21:04;;;;;;;1.77;0.70;;;;;;;;;;5059396;28;20074;-90
2021/12/02 04:23:29;;;;;;;2.93;0.53;;;;;;;;;;5077200;28;20051;-90
2021/12/02 04:25:54;;;;;;;5.53;0.80;;;;;;;;;;5076920;28;20024;-90
2021/12/02 04:28:20;;;;;;;2.27;0.73;;;;;;;;;;5059488;28;20029;-90
2021/12/02 04:30:45;;;;;;;7.50;0.90;;;;;;;;;;5059035;28;20032;-90
2021/12/02 04:33:10;;;;;;;6.83;0.70;;;;;;;;;;5076823;28;20015;-90
2021/12/02 04:35:35;;;;;;;3.33;0.60;;;;;;;;;;5059220;28;20725;-91
2021/12/02 04:38:00;;;;;;;3.73;0.60;;;;;;;;;;5058896;28;20051;-90
2021/12/02 04:40:26;;;;;;;6.67;0.57;;;;;;;;;;5076778;28;20024;-90
2021/12/02 04:42:51;;;;;;;5.23;0.87;;;;;;;;;;5059296;28;20039;-90
2021/12/02 04:45:16;;;;;;;2.87;0.57;;;;;;;;;;5058810;28;20495;-90
2021/12/02 04:47:42;;;;;;;9.77;0.93;;;;;;;;;;5076602;28;20013;-90
2021/12/02 04:50:08;;;;;;;11.77;0.77;;;;;;;;;;5076661;28;20024;-90
2021/12/02 04:52:33;;;;;;;2.43;0.50;;;;;;;;;;5059871;28;20046;-89
2021/12/02 04:54:58;;;;;;;4.00;0.73;;;;;;;;;;5058787;28;20376;-90
2021/12/02 04:57:23;;;;;;;7.57;0.70;;;;;;;;;;5058592;28;20051;-90
2021/12/02 04:59:49;;;;;;;4.93;0.77;;;;;;;;;;5058309;28;20056;-90
2021/12/02 05:02:14;;;;;;;6.67;0.50;;;;;;;;;;5058395;28;20023;-90
2021/12/02 05:04:39;;;;;;;3.13;0.70;;;;;;;;;;5058406;28;20115;-90
2021/12/02 05:07:04;;;;;;;5.37;0.50;;;;;;;;;;5058286;28;20052;-90
2021/12/02 05:09:30;;;;;;;4.37;0.40;;;;;;;;;;5058365;28;20025;-90
2021/12/02 05:11:55;;;;;;;3.10;0.37;;;;;;;;;;5058286;28;20029;-90
2021/12/02 05:14:20;;;;;;;1.60;0.27;;;;;;;;;;5058445;28;20029;-90
2021/12/02 05:16:45;;;;;;;0.40;0.17;;;;;;;;;;5058038;28;20074;-89
2021/12/02 05:19:11;;;;;;;2.37;0.40;;;;;;;;;;5058426;28;20021;-90
2021/12/02 05:21:36;;;;;;;6.80;0.50;;;;;;;;;;5057662;28;20032;-90
2021/12/02 05:24:01;;;;;;;2.60;0.50;;;;;;;;;;5056717;28;20056;-89
2021/12/02 05:26:27;;;;;;;2.70;0.43;;;;;;;;;;5056594;28;20035;-89
2021/12/02 05:28:53;;;;;;;1.93;0.50;;;;;;;;;;5056213;28;20021;-89
2021/12/02 05:31:18;;;;;;;5.17;0.63;;;;;;;;;;5056669;28;20492;-90
2021/12/02 05:33:44;;;;;;;6.27;0.63;;;;;;;;;;5057096;28;20042;-89
2021/12/02 05:36:09;;;;;;;3.80;0.83;;;;;;;;;;5056525;28;20016;-90
2021/12/02 05:38:35;;;;;;;5.43;0.80;;;;;;;;;;5056342;28;20021;-90
2021/12/02 05:41:00;;;;;;;1.50;0.60;;;;;;;;;;5056533;28;20115;-90
2021/12/02 05:43:25;;;;;;;1.20;0.60;;;;;;;;;;5056757;28;20032;-89
2021/12/02 05:45:50;;;;;;;2.73;0.77;;;;;;;;;;5056298;28;20028;-90
2021/12/02 05:48:16;;;;;;;4.17;1.10;;;;;;;;;;5058263;28;20070;-89
2021/12/02 05:50:41;;;;;;;5.23;0.80;;;;;;;;;;5057416;28;20468;-89
2021/12/02 05:53:07;;;;;;;4.17;0.90;;;;;;;;;;5057494;28;20012;-90
2021/12/02 05:55:32;;;;;;;6.43;1.00;;;;;;;;;;5056933;28;20111;-90
2021/12/02 05:57:57;;;;;;;1.87;0.80;;;;;;;;;;5057056;28;20066;-90
2021/12/02 06:00:22;;;;;;;4.23;0.90;;;;;;;;;;5072781;28;20029;-90
2021/12/02 06:02:48;;;;;;;4.00;1.00;;;;;;;;;;5057609;28;20127;-90
2021/12/02 06:05:19;;;;;;;7.77;0.80;;;;;;;;;;5057437;28;20158;-91
2021/12/02 06:07:45;;;;;;;1.67;0.80;;;;;;;;;;5057230;28;20033;-90
2021/12/02 06:10:11;;;;;;;4.40;0.97;;;;;;;;;;5057184;28;20021;-90
2021/12/02 06:12:36;;;;;;;2.47;0.80;;;;;;;;;;5057093;28;20024;-90
2021/12/02 06:15:01;;;;;;;5.50;0.70;;;;;;;;;;5074231;28;20066;-90
2021/12/02 06:17:26;;;;;;;3.50;0.90;;;;;;;;;;5077153;28;20081;-90
2021/12/02 06:19:52;;;;;;;2.90;0.70;;;;;;;;;;5077043;28;20020;-90
2021/12/02 06:22:17;;;;;;;0.80;0.50;;;;;;;;;;5073742;28;20075;-90
2021/12/02 06:25:04;;;;;;;1.97;0.70;;;;;;;;;;5057690;28;20119;-91
2021/12/02 06:27:30;;;;;;;9.30;0.90;;;;;;;;;;5067412;28;20027;-90
2021/12/02 06:29:55;;;;;;;2.07;0.40;;;;;;;;;;5072834;28;20016;-90
2021/12/02 06:32:20;;;;;;;4.13;0.50;;;;;;;;;;5039753;28;20025;-90
2021/12/02 06:34:45;;;;;;;4.60;0.60;;;;;;;;;;5036978;28;20472;-90
2021/12/02 06:37:10;;;;;;;3.03;0.47;;;;;;;;;;5036627;28;20090;-90
2021/12/02 06:39:36;;;;;;;1.53;0.40;;;;;;;;;;5036908;28;20017;-90
2021/12/02 06:42:01;;;;;;;2.57;0.20;;;;;;;;;;5036961;28;20030;-90
2021/12/02 06:44:27;;;;;;;2.30;0.40;;;;;;;;;;5036445;28;20029;-90
2021/12/02 06:46:52;;;;;;;4.63;0.50;;;;;;;;;;5036683;28;20400;-90
2021/12/02 06:49:18;;;;;;;1.83;0.50;;;;;;;;;;5036643;28;20025;-90
2021/12/02 06:51:43;;;;;;;0.73;0.47;;;;;;;;;;5040535;28;20017;-90
2021/12/02 06:54:08;;;;;;;9.10;0.60;;;;;;;;;;5073604;28;20020;-90
2021/12/02 06:56:33;;;;;;;2.30;0.77;;;;;;;;;;5055721;28;20013;-91
2021/12/02 06:58:59;;;;;;;2.43;0.90;;;;;;;;;;5073654;28;20372;-90
2021/12/02 07:01:24;;;;;;;3.07;0.63;;;;;;;;;;5056127;28;20025;-90
2021/12/02 07:03:49;;;;;;;3.00;0.70;;;;;;;;;;5056317;28;20107;-91
2021/12/02 07:06:14;;;;;;;4.77;0.70;;;;;;;;;;5056226;28;20032;-91
2021/12/02 07:08:39;;;;;;;2.13;0.77;;;;;;;;;;5054397;28;20040;-92
2021/12/02 07:11:07;;;;;;;3.07;0.73;;;;;;;;;;5073773;28;20490;-91
2021/12/02 07:13:34;;;;;;;6.67;0.80;;;;;;;;;;5056185;28;20015;-91
2021/12/02 07:16:00;;;;;;;6.20;1.07;;;;;;;;;;5056266;28;20013;-90
2021/12/02 07:18:25;;;;;;;4.57;0.90;;;;;;;;;;5055757;28;20026;-91
2021/12/02 07:20:51;;;;;;;6.20;1.30;;;;;;;;;;5056196;28;20069;-90
2021/12/02 07:23:18;;;;;;;6.03;1.17;;;;;;;;;;5055951;28;20024;-91
2021/12/02 07:25:43;;;;;;;5.10;1.37;;;;;;;;;;5054631;28;20043;-91
2021/12/02 07:28:10;;;;;;;7.97;1.10;;;;;;;;;;5074271;28;20472;-91
2021/12/02 07:30:35;;;;;;;4.10;1.40;;;;;;;;;;5073514;28;20044;-91
2021/12/02 07:33:02;;;;;;;1.97;0.90;;;;;;;;;;5055885;28;20022;-91
2021/12/02 07:35:27;;;;;;;4.77;1.00;;;;;;;;;;5055772;28;20031;-92
2021/12/02 07:37:54;;;;;;;6.63;1.33;;;;;;;;;;5056004;28;20107;-92
2021/12/02 07:40:21;;;;;;;6.13;1.50;;;;;;;;;;5056159;28;20445;-92
2021/12/02 07:42:48;;;;;;;3.37;1.33;;;;;;;;;;5056119;28;20028;-92
2021/12/02 07:45:13;;;;;;;3.27;1.20;;;;;;;;;;5056080;28;20021;-91
2021/12/02 07:47:39;;;;;;;3.37;1.10;;;;;;;;;;5055996;28;20020;-91
2021/12/02 07:50:06;;;;;;;6.40;1.80;;;;;;;;;;5056369;28;20399;-91
2021/12/02 07:52:33;;;;;;;5.83;0.80;;;;;;;;;;5055889;28;20032;-91
2021/12/02 07:55:00;;;;;;;6.30;1.00;;;;;;;;;;5056161;28;20074;-91
2021/12/02 07:57:25;;;;;;;9.87;1.63;;;;;;;;;;5055915;28;20039;-91
2021/12/02 07:59:51;;;;;;;10.23;1.27;;;;;;;;;;5055934;28;20017;-91
2021/12/02 08:02:16;;;;;;;4.47;1.00;;;;;;;;;;5039862;28;20029;-91
2021/12/02 08:04:42;;;;;;;5.70;1.00;;;;;;;;;;5053660;28;20075;-91
2021/12/02 08:07:07;;;;;;;7.67;1.20;;;;;;;;;;5035979;28;20029;-91
2021/12/02 08:09:32;;;;;;;3.70;1.30;;;;;;;;;;5042915;28;20108;-91
2021/12/02 08:11:59;;;;;;;4.67;1.20;;;;;;;;;;5055657;28;20024;-92
2021/12/02 08:14:25;;;;;;;3.77;0.90;;;;;;;;;;5073700;28;20069;-91
2021/12/02 08:16:50;;;;;;;4.83;0.80;;;;;;;;;;5061848;28;20107;-90
2021/12/02 08:19:15;;;;;;;4.07;0.50;;;;;;;;;;5071945;28;20020;-90
2021/12/02 08:21:41;;;;;;;2.53;0.63;;;;;;;;;;5055865;28;20031;-90
2021/12/02 08:24:06;;;;;;;3.83;0.50;;;;;;;;;;5059098;28;20544;-90
2021/12/02 08:26:32;;;;;;;3.30;0.50;;;;;;;;;;5065235;28;20464;-90
2021/12/02 08:28:57;;;;;;;2.60;0.60;;;;;;;;;;5055453;28;20130;-89
2021/12/02 08:31:23;;;;;;;3.03;0.53;;;;;;;;;;5059478;28;20025;-89
2021/12/02 08:33:50;;;;;;;4.03;0.70;;;;;;;;;;5075667;28;20085;-90
2021/12/02 08:36:16;;;;;;;5.20;0.80;;;;;;;;;;5093954;28;20103;-88
2021/12/02 08:38:41;;;;;;;4.50;0.73;;;;;;;;;;5078982;28;20518;-89
2021/12/02 08:41:07;;;;;;;4.00;0.60;;;;;;;;;;5078857;28;20081;-89
2021/12/02 08:43:32;;;;;;;0.70;0.40;;;;;;;;;;5068498;28;20368;-89
2021/12/02 08:45:57;;;;;;;3.80;0.47;;;;;;;;;;5078780;28;20020;-89
2021/12/02 08:48:23;;;;;;;0.93;0.47;;;;;;;;;;5078883;28;20016;-88
2021/12/02 08:50:48;;;;;;;2.10;0.50;;;;;;;;;;5096730;28;20032;-88
2021/12/02 08:53:14;;;;;;;2.43;0.47;;;;;;;;;;5074454;28;20019;-88
2021/12/02 08:55:39;;;;;;;1.10;0.63;;;;;;;;;;5075963;28;20092;-89
2021/12/02 08:58:07;;;;;;;2.93;0.63;;;;;;;;;;5078509;28;20013;-89
2021/12/02 09:00:36;;;;;;;1.43;0.50;;;;;;;;;;5064371;28;20472;-89
2021/12/02 09:03:06;;;;;;;3.53;1.03;;;;;;;;;;5058580;28;20020;-88
2021/12/02 09:05:31;;;;;;;2.00;0.83;;;;;;;;;;5058459;28;20472;-89
2021/12/02 09:07:56;;;;;;;1.67;0.70;;;;;;;;;;5058239;28;20066;-89
2021/12/02 09:10:22;;;;;;;6.07;0.93;;;;;;;;;;5066602;28;20016;-89
2021/12/02 09:12:48;;;;;;;7.23;1.03;;;;;;;;;;5078358;28;20024;-89
2021/12/02 09:15:13;;;;;;;2.07;1.03;;;;;;;;;;5063320;28;20022;-89
2021/12/02 09:17:38;;;;;;;4.50;0.87;;;;;;;;;;5057884;28;20116;-89
2021/12/02 09:20:04;;;;;;;4.33;1.10;;;;;;;;;;5057938;28;20028;-89
2021/12/02 09:22:30;;;;;;;2.23;1.17;;;;;;;;;;5057822;28;20063;-89
2021/12/02 09:24:55;;;;;;;6.40;1.67;;;;;;;;;;5058054;28;20380;-89
2021/12/02 09:27:20;;;;;;;1.60;1.10;;;;;;;;;;5057643;28;20468;-89
2021/12/02 09:29:45;;;;;;;3.57;1.17;;;;;;;;;;5073328;28;20017;-90
2021/12/02 09:32:11;;;;;;;0.83;0.63;;;;;;;;;;5057683;28;20025;-89
2021/12/02 09:34:37;;;;;;;4.83;1.07;;;;;;;;;;5077341;28;20023;-89
2021/12/02 09:37:02;;;;;;;1.50;0.77;;;;;;;;;;5060674;28;20103;-90
2021/12/02 09:39:32;;;;;;;2.13;1.03;;;;;;;;;;5058038;28;20542;-89
2021/12/02 09:41:58;;;;;;;1.77;0.90;;;;;;;;;;5057616;28;20378;-89
2021/12/02 09:44:23;;;;;;;3.17;0.87;;;;;;;;;;5057952;28;20021;-91
2021/12/02 09:46:48;;;;;;;1.60;0.90;;;;;;;;;;5057908;28;20074;-90
2021/12/02 09:49:15;;;;;;;1.80;0.90;;;;;;;;;;5063399;28;20474;-90
2021/12/02 09:54:11;;;;;;;2.30;0.93;;;;;;;;;;5096279;28;20083;-91
2021/12/02 09:56:38;;;;;;;2.40;0.80;;;;;;;;;;5078018;28;20020;-91
2021/12/02 09:59:08;;;;;;;3.83;1.33;;;;;;;;;;5068785;28;20062;-91
2021/12/02 10:04:05;;;;;;;2.23;0.90;;;;;;;;;;5078924;28;20107;-86
2021/12/02 10:06:32;;;;;;;4.20;1.30;;;;;;;;;;5056976;28;20013;-85
2021/12/02 10:09:10;;;;;;;5.33;1.67;;;;;;;;;;5058988;28;20020;-86
2021/12/02 10:11:41;;;;;;;3.90;1.40;;;;;;;;;;5084802;28;20067;-86
2021/12/02 10:14:15;;;;;;;4.33;1.27;;;;;;;;;;5074592;28;20020;-86
2021/12/02 10:16:44;;;;;;;3.13;1.67;;;;;;;;;;5075638;28;20054;-89
2021/12/02 10:19:11;;;;;;;4.97;1.70;;;;;;;;;;5074677;28;20017;-88
2021/12/02 10:21:43;;;;;;;6.77;1.37;;;;;;;;;;5057111;28;20031;-89
2021/12/02 10:24:10;;;;;;;5.18;2.03;;;;;;;;;;5056962;28;20051;-89
2021/12/02 10:26:37;;;;;;;5.60;1.20;;;;;;;;;;5056622;28;20033;-90
2021/12/02 10:29:10;;;;;;;6.60;1.57;;;;;;;;;;5057051;28;20074;-89
2021/12/02 10:31:37;;;;;;;3.30;1.10;;;;;;;;;;5061452;28;20020;-89
2021/12/02 10:34:03;;;;;;;5.90;1.93;;;;;;;;;;5073091;28;20435;-89
2021/12/02 10:36:39;;;;;;;4.00;2.00;;;;;;;;;;5073055;28;20100;-89
2021/12/02 10:39:22;;;;;;;6.03;1.57;;;;;;;;;;5077071;28;20026;-89
2021/12/02 10:41:57;;;;;;;3.53;1.25;;;;;;;;;;5061461;28;20028;-89
2021/12/02 10:44:24;;;;;;;2.60;1.27;;;;;;;;;;5072402;28;20051;-89
2021/12/02 10:46:49;;;;;;;5.90;1.47;;;;;;;;;;5076330;28;20085;-90
2021/12/02 10:49:15;;;;;;;2.50;1.10;;;;;;;;;;5094693;28;20638;-90
2021/12/02 10:51:41;;;;;;;4.03;1.10;;;;;;;;;;5039712;28;20539;-90
2021/12/02 10:54:13;;;;;;;1.00;0.80;;;;;;;;;;5075214;28;20028;-90
2021/12/02 10:56:40;;;;;;;2.83;1.07;;;;;;;;;;5092299;28;20070;-90
2021/12/02 10:59:32;;;;;;;2.17;1.00;;;;;;;;;;5094177;28;20808;-90
2021/12/02 11:01:59;;;;;;;2.70;0.87;;;;;;;;;;5072196;28;20038;-90
2021/12/02 11:04:25;;;;;;;2.10;0.80;;;;;;;;;;5076117;28;20024;-90
2021/12/02 11:06:55;;;;;;;3.70;0.90;;;;;;;;;;5074797;28;20471;-90
2021/12/02 11:09:25;;;;;;;4.67;0.93;;;;;;;;;;5055830;28;20430;-90
2021/12/02 11:12:05;;;;;;;3.53;1.00;;;;;;;;;;5055882;28;20467;-90
2021/12/02 11:14:30;;;;;;;3.20;1.00;;;;;;;;;;5056157;28;20040;-90
2021/12/02 11:17:05;;;;;;;4.63;0.90;;;;;;;;;;5073470;28;20020;-89
2021/12/02 11:19:30;;;;;;;2.37;0.77;;;;;;;;;;5056015;28;20016;-90
2021/12/02 11:22:06;;;;;;;3.10;0.70;;;;;;;;;;5055834;28;20047;-90
2021/12/02 11:24:32;;;;;;;2.20;0.70;;;;;;;;;;5055541;28;20028;-89
2021/12/02 11:27:08;;;;;;;2.43;0.70;;;;;;;;;;5055255;28;20032;-89
2021/12/02 11:29:51;;;;;;;3.60;0.90;;;;;;;;;;5035489;28;20029;-89
2021/12/02 11:32:26;;;;;;;1.33;0.70;;;;;;;;;;5035201;28;20465;-89
2021/12/02 11:35:00;;;;;;;0.67;0.23;;;;;;;;;;5053205;28;20465;-89
2021/12/02 11:37:26;;;;;;;3.57;0.80;;;;;;;;;;5058829;28;20016;-90
2021/12/02 11:39:52;;;;;;;2.83;0.80;;;;;;;;;;5055117;28;20017;-89
2021/12/02 11:42:17;;;;;;;1.23;0.67;;;;;;;;;;5055189;28;20182;-89
2021/12/02 11:44:43;;;;;;;1.53;0.83;;;;;;;;;;5054986;28;20060;-90
2021/12/02 11:47:08;;;;;;;2.00;0.70;;;;;;;;;;5048508;28;20025;-89
2021/12/02 11:49:35;;;;;;;1.23;0.83;;;;;;;;;;5055111;28;20032;-90
2021/12/02 11:52:00;;;;;;;1.27;0.50;;;;;;;;;;5055347;28;20048;-90
2021/12/02 11:54:25;;;;;;;1.60;0.80;;;;;;;;;;5054652;28;20033;-90
2021/12/02 11:56:50;;;;;;;0.97;0.47;;;;;;;;;;5055052;28;20051;-90
2021/12/02 11:59:17;;;;;;;1.33;0.63;;;;;;;;;;5055280;28;20042;-90
2021/12/02 12:01:43;;;;;;;1.33;0.80;;;;;;;;;;5055400;28;20028;-90
2021/12/02 12:04:11;;;;;;;1.53;0.70;;;;;;;;;;5055271;28;20032;-89
2021/12/02 12:06:39;;;;;;;2.57;0.80;;;;;;;;;;5054379;28;20063;-89
2021/12/02 12:09:11;;;;;;;2.13;1.10;;;;;;;;;;5050481;28;20055;-90
2021/12/02 12:11:43;;;;;;;2.60;1.30;;;;;;;;;;5058791;28;20100;-90
2021/12/02 12:14:11;;;;;;;4.50;1.35;;;;;;;;;;5055600;28;20407;-89
2021/12/02 12:16:45;;;;;;;7.60;1.50;;;;;;;;;;5050679;28;20035;-89
2021/12/02 12:19:16;;;;;;;3.10;1.40;;;;;;;;;;5059808;28;20020;-90
2021/12/02 12:21:44;;;;;;;3.40;1.63;;;;;;;;;;5075161;28;20460;-90
2021/12/02 12:24:10;;;;;;;4.03;1.40;;;;;;;;;;5057372;28;20024;-90
2021/12/02 12:26:40;;;;;;;0.90;0.60;;;;;;;;;;5055892;28;20032;-89
2021/12/02 12:29:06;;;;;;;2.70;1.00;;;;;;;;;;5070152;28;20029;-90
2021/12/02 12:31:33;;;;;;;1.43;0.90;;;;;;;;;;5055456;28;20468;-89
2021/12/02 12:34:00;;;;;;;1.53;0.73;;;;;;;;;;5059683;28;20052;-90
2021/12/02 12:36:42;;;;;;;4.10;0.90;;;;;;;;;;5055719;28;20021;-90
2021/12/02 12:39:17;;;;;;;1.10;0.70;;;;;;;;;;5058177;28;20027;-84
2021/12/02 12:41:43;;;;;;;4.27;0.70;;;;;;;;;;5057381;28;20024;-82
2021/12/02 12:44:08;;;;;;;3.23;0.80;;;;;;;;;;5057916;28;20537;-83
2021/12/02 12:46:34;;;;;;;2.60;0.63;;;;;;;;;;5056296;28;20035;-83
2021/12/02 12:49:14;;;;;;;1.87;0.90;;;;;;;;;;5075844;28;20025;-83
2021/12/02 12:51:47;;;;;;;2.23;1.00;;;;;;;;;;5057984;28;20020;-83
2021/12/02 12:54:18;;;;;;;2.47;1.00;;;;;;;;;;5075949;28;20466;-84
2021/12/02 12:56:46;;;;;;;5.03;1.47;;;;;;;;;;5057824;28;20052;-83
2021/12/02 12:59:12;;;;;;;4.53;1.03;;;;;;;;;;5036795;28;20021;-83
2021/12/02 13:01:38;;;;;;;7.10;1.60;;;;;;;;;;5036023;28;20028;-83
2021/12/02 13:04:08;;;;;;;3.77;1.70;;;;;;;;;;5036298;28;20017;-83
2021/12/02 13:06:47;;;;;;;8.90;2.90;;;;;;;;;;5044547;28;20028;-83
2021/12/02 13:09:30;;;;;;;8.70;2.37;;;;;;;;;;5035987;28;20430;-83
2021/12/02 13:11:55;;;;;;;;;;;;;;;;;;5054219;28;20036;-83
2021/12/02 13:14:20;;;;;;;4.75;2.63;;;;;;;;;;5054272;28;19908;-83
2021/12/02 13:16:46;;;;;;;3.53;1.87;;;;;;;;;;5057376;28;20507;-83
2021/12/02 13:19:12;;;;;;;4.33;1.90;;;;;;;;;;5069121;28;20020;-83
2021/12/02 13:21:37;;;;;;;3.77;1.20;;;;;;;;;;5077552;28;20085;-83
2021/12/02 13:24:10;;;;;;;2.87;1.20;;;;;;;;;;5076477;28;20476;-83
2021/12/02 13:26:38;;;;;;;1.50;1.00;;;;;;;;;;5076330;28;20031;-82
2021/12/02 13:29:03;;;;;;;3.27;0.80;;;;;;;;;;5077581;28;20478;-83
2021/12/02 13:31:29;;;;;;;1.07;0.70;;;;;;;;;;5060454;28;20091;-82
2021/12/02 13:34:02;;;;;;;2.30;0.90;;;;;;;;;;5057207;28;20021;-83
2021/12/02 13:36:34;;;;;;;0.87;0.60;;;;;;;;;;5057331;28;20023;-82
2021/12/02 13:39:11;;;;;;;0.90;0.50;;;;;;;;;;5059843;28;20025;-82
2021/12/02 13:41:39;;;;;;;0.53;0.30;;;;;;;;;;5090414;28;20059;-82
2021/12/02 13:44:06;;;;;;;0.83;0.40;;;;;;;;;;5060107;28;20063;-82
2021/12/02 13:46:36;;;;;;;1.30;0.50;;;;;;;;;;5073769;28;20361;-82
2021/12/02 13:49:03;;;;;;;0.60;0.40;;;;;;;;;;5057030;28;20021;-82
2021/12/02 13:52:38;;;;;;;0.50;0.30;;;;;;;;;;5056643;28;20111;-81
2021/12/02 13:54:30;;;;;;;1.33;0.30;;;;;;;;;;5065176;28;20028;-82
2021/12/02 13:56:57;;;;;;;0.60;0.20;;;;;;;;;;5073282;28;20129;-81
2021/12/02 13:59:25;;;;;;;2.87;0.30;;;;;;;;;;5056406;28;20025;-81
2021/12/02 14:01:55;;;;;;;0.50;0.30;;;;;;;;;;5074466;28;20099;-82
2021/12/02 14:04:20;;;;;;;0.43;0.30;;;;;;;;;;5066114;28;20710;-82
2021/12/02 14:06:45;;;;;;;0.57;0.30;;;;;;;;;;5056569;28;20025;-82
2021/12/02 14:09:16;;;;;;;2.57;0.30;;;;;;;;;;5066065;28;20020;-81
2021/12/02 14:11:41;;;;;;;1.20;0.20;;;;;;;;;;5073555;28;20552;-82
2021/12/02 14:14:06;;;;;;;0.50;0.30;;;;;;;;;;5056582;28;20030;-82
2021/12/02 14:16:32;;;;;;;0.93;0.40;;;;;;;;;;5056350;28;20376;-82
2021/12/02 14:19:07;;;;;;;0.40;0.30;;;;;;;;;;5056124;28;20032;-82
2021/12/02 14:21:32;;;;;;;1.53;0.40;;;;;;;;;;5056256;28;20029;-81
2021/12/02 14:23:57;;;;;;;0.50;0.40;;;;;;;;;;5059337;28;20029;-81
2021/12/02 14:26:26;;;;;;;1.27;0.60;;;;;;;;;;5094506;28;20455;-82
2021/12/02 14:28:52;;;;;;;0.53;0.37;;;;;;;;;;5068122;28;20036;-82
2021/12/02 14:31:25;;;;;;;1.80;0.30;;;;;;;;;;5055787;28;20107;-81
2021/12/02 14:33:53;;;;;;;0.50;0.40;;;;;;;;;;5055121;28;20099;-82
2021/12/02 14:36:19;;;;;;;0.80;0.40;;;;;;;;;;5055262;28;20797;-82
2021/12/02 14:38:57;;;;;;;1.33;0.50;;;;;;;;;;5056130;28;20013;-81
2021/12/02 14:41:26;;;;;;;1.70;0.50;;;;;;;;;;5055755;28;20115;-82
2021/12/02 14:43:53;;;;;;;2.10;0.80;;;;;;;;;;5055712;28;20024;-82
2021/12/02 14:46:20;;;;;;;2.13;0.70;;;;;;;;;;5055918;28;20070;-82
2021/12/02 14:48:46;;;;;;;1.40;0.60;;;;;;;;;;5055624;28;20043;-82
2021/12/02 14:51:13;;;;;;;2.10;1.03;;;;;;;;;;5055792;28;20024;-81
2021/12/02 14:53:41;;;;;;;1.97;1.00;;;;;;;;;;5055738;28;20021;-81
2021/12/02 14:56:38;;;;;;;5.53;0.87;;;;;;;;;;5055196;28;20017;-81
2021/12/02 14:59:04;;;;;;;2.73;1.20;;;;;;;;;;5025721;28;20412;-81